createdAt,value
2019-03-15T00:00:50.188Z,2.80
2019-03-15T00:03:18.964Z,2.30
2019-03-15T00:05:47.772Z,3.20
2019-03-15T00:08:16.428Z,2.40
2019-03-15T00:10:45.067Z,2.43
2019-03-15T00:13:13.701Z,2.83
2019-03-15T00:15:42.541Z,2.40
2019-03-15T00:18:10.979Z,2.00
2019-03-15T00:20:39.803Z,2.17
2019-03-15T00:23:08.827Z,1.83
2019-03-15T00:25:38.045Z,1.77
2019-03-15T00:28:07.087Z,1.43
2019-03-15T00:30:36.071Z,1.50
2019-03-15T00:33:04.775Z,2.57
2019-03-15T00:35:33.592Z,2.13
2019-03-15T00:38:02.252Z,1.80
2019-03-15T00:40:31.070Z,2.00
2019-03-15T00:43:00.083Z,3.50
2019-03-15T00:45:28.750Z,2.70
2019-03-15T00:47:57.559Z,1.70
2019-03-15T00:50:26.580Z,2.70
2019-03-15T00:52:55.244Z,2.00
2019-03-15T00:55:24.082Z,1.80
2019-03-15T00:57:53.274Z,1.57
2019-03-15T01:00:21.990Z,1.53
2019-03-15T01:02:51.096Z,2.53
2019-03-15T01:05:20.071Z,1.80
2019-03-15T01:07:49.198Z,1.87
2019-03-15T01:10:18.226Z,1.60
2019-03-15T01:12:46.886Z,1.77
2019-03-15T01:15:15.551Z,2.00
2019-03-15T01:17:44.358Z,2.40
2019-03-15T01:20:13.426Z,3.13
2019-03-15T01:22:42.206Z,3.40
2019-03-15T01:25:10.649Z,3.07
2019-03-15T01:27:42.413Z,3.87
2019-03-15T01:30:11.115Z,4.33
2019-03-15T01:32:39.944Z,5.07
2019-03-15T01:35:08.944Z,5.60
2019-03-15T01:37:37.579Z,5.47
2019-03-15T01:40:06.695Z,6.07
2019-03-15T01:42:35.454Z,5.47
2019-03-15T01:45:04.389Z,7.57
2019-03-15T01:47:33.469Z,6.07
2019-03-15T01:50:02.144Z,5.23
2019-03-15T01:52:30.779Z,6.67
2019-03-15T01:54:59.574Z,8.70
2019-03-15T01:57:27.890Z,9.83
2019-03-15T01:59:56.689Z,13.30
2019-03-15T02:02:26.271Z,11.03
2019-03-15T02:04:55.167Z,12.20
2019-03-15T02:07:24.340Z,14.30
2019-03-15T02:09:53.557Z,16.90
2019-03-15T02:12:22.591Z,12.30
2019-03-15T02:14:51.626Z,13.20
2019-03-15T02:17:20.458Z,11.40
2019-03-15T02:19:49.488Z,11.03
2019-03-15T02:22:18.140Z,8.47
2019-03-15T02:24:47.163Z,9.00
2019-03-15T02:27:15.802Z,6.53
2019-03-15T02:29:44.819Z,5.03
2019-03-15T02:32:13.479Z,4.60
2019-03-15T02:34:42.173Z,4.97
2019-03-15T02:37:12.120Z,4.80
2019-03-15T02:39:41.035Z,3.80
2019-03-15T02:42:09.819Z,4.23
2019-03-15T02:44:39.232Z,4.87
2019-03-15T02:47:08.010Z,4.37
2019-03-15T02:49:36.340Z,7.47
2019-03-15T02:52:04.690Z,4.33
2019-03-15T02:54:33.382Z,4.73
2019-03-15T02:57:02.332Z,3.97
2019-03-15T02:59:31.305Z,5.07
2019-03-15T03:02:00.696Z,4.60
2019-03-15T03:04:29.521Z,5.57
2019-03-15T03:06:58.341Z,4.87
2019-03-15T03:09:27.715Z,6.20
2019-03-15T03:11:56.847Z,5.23
2019-03-15T03:14:25.716Z,4.47
2019-03-15T03:16:55.015Z,4.70
2019-03-15T03:19:23.860Z,4.90
2019-03-15T03:21:52.490Z,6.77
2019-03-15T03:24:21.390Z,4.87
2019-03-15T03:26:50.044Z,3.97
2019-03-15T03:29:20.019Z,5.40
2019-03-15T03:31:49.484Z,6.63
2019-03-15T03:34:17.829Z,5.87
2019-03-15T03:36:46.493Z,5.00
2019-03-15T03:39:15.331Z,5.17
2019-03-15T03:41:44.167Z,6.03
2019-03-15T03:44:12.518Z,5.70
2019-03-15T03:46:41.300Z,5.07
2019-03-15T03:49:10.098Z,4.60
2019-03-15T03:51:39.383Z,6.67
2019-03-15T03:54:08.144Z,5.03
2019-03-15T03:56:37.219Z,6.47
2019-03-15T03:59:05.954Z,4.20
2019-03-15T04:01:34.607Z,4.53
2019-03-15T04:04:03.811Z,4.63
2019-03-15T04:06:32.703Z,4.83
2019-03-15T04:09:01.543Z,5.40
2019-03-15T04:11:30.222Z,3.80
2019-03-15T04:13:58.966Z,4.40
2019-03-15T04:16:27.414Z,3.83
2019-03-15T04:18:56.062Z,4.93
2019-03-15T04:21:24.699Z,4.00
2019-03-15T04:23:54.011Z,5.37
2019-03-15T04:26:22.747Z,5.13
2019-03-15T04:28:51.379Z,5.90
2019-03-15T04:31:20.024Z,4.63
2019-03-15T04:33:48.847Z,4.17
2019-03-15T04:36:17.678Z,2.90
2019-03-15T04:38:46.325Z,3.70
2019-03-15T04:41:15.011Z,4.23
2019-03-15T04:43:43.824Z,3.50
2019-03-15T04:46:13.100Z,3.73
2019-03-15T04:48:42.053Z,3.97
2019-03-15T04:51:10.892Z,3.20
2019-03-15T04:53:40.039Z,3.50
2019-03-15T04:56:09.019Z,4.57
2019-03-15T04:58:37.798Z,3.07
2019-03-15T05:01:06.496Z,3.50
2019-03-15T05:03:35.259Z,3.73
2019-03-15T05:06:04.204Z,3.93
2019-03-15T05:08:33.102Z,2.83
2019-03-15T05:11:02.309Z,3.00
2019-03-15T05:13:31.339Z,5.53
2019-03-15T05:16:00.381Z,3.80
2019-03-15T05:18:29.035Z,5.63
2019-03-15T05:20:57.867Z,7.40
2019-03-15T05:23:26.706Z,5.77
2019-03-15T05:25:55.561Z,5.37
2019-03-15T05:28:24.646Z,3.17
2019-03-15T05:30:53.271Z,5.37
2019-03-15T05:33:22.065Z,3.53
2019-03-15T05:35:51.258Z,2.73
2019-03-15T05:38:19.869Z,5.00
2019-03-15T05:40:48.904Z,2.10
2019-03-15T05:43:17.939Z,3.33
2019-03-15T05:45:46.624Z,2.70
2019-03-15T05:48:15.418Z,2.27
2019-03-15T05:50:44.074Z,1.83
2019-03-15T05:53:12.687Z,1.87
2019-03-15T05:55:41.698Z,2.33
2019-03-15T05:58:10.394Z,3.00
2019-03-15T06:00:39.303Z,3.53
2019-03-15T06:03:08.043Z,4.73
2019-03-15T06:05:36.891Z,1.67
2019-03-15T06:08:05.702Z,5.33
2019-03-15T06:10:34.905Z,2.40
2019-03-15T06:13:03.936Z,3.43
2019-03-15T06:15:32.316Z,2.70
2019-03-15T06:18:01.211Z,2.03
2019-03-15T06:20:30.422Z,1.23
2019-03-15T06:22:59.283Z,1.07
2019-03-15T06:25:27.927Z,1.13
2019-03-15T06:27:56.762Z,0.57
2019-03-15T06:30:25.584Z,0.63
2019-03-15T06:32:54.247Z,1.40
2019-03-15T06:35:23.618Z,2.53
2019-03-15T06:37:52.267Z,1.33
2019-03-15T06:40:20.706Z,1.03
2019-03-15T06:42:49.041Z,1.07
2019-03-15T06:45:17.466Z,1.43
2019-03-15T06:47:45.814Z,1.23
2019-03-15T06:50:14.162Z,3.20
2019-03-15T06:52:42.490Z,2.40
2019-03-15T06:55:10.976Z,1.10
2019-03-15T06:57:39.427Z,2.10
2019-03-15T07:00:08.303Z,1.53
2019-03-15T07:02:36.658Z,2.13
2019-03-15T07:05:05.683Z,0.70
2019-03-15T07:07:34.394Z,0.70
2019-03-15T07:10:02.843Z,0.60
2019-03-15T07:12:31.262Z,0.70
2019-03-15T07:14:59.602Z,0.40
2019-03-15T07:17:28.079Z,0.63
2019-03-15T07:19:56.425Z,0.60
2019-03-15T07:22:24.758Z,0.53
2019-03-15T07:24:53.103Z,0.60
2019-03-15T07:27:21.864Z,0.90
2019-03-15T07:29:50.476Z,1.13
2019-03-15T07:32:19.126Z,0.60
2019-03-15T07:34:47.783Z,2.47
2019-03-15T07:37:18.938Z,2.40
2019-03-15T07:39:47.579Z,1.33
2019-03-15T07:42:16.014Z,2.47
2019-03-15T07:44:44.338Z,1.30
2019-03-15T07:47:12.674Z,1.43
2019-03-15T07:49:42.161Z,0.97
2019-03-15T07:52:10.694Z,1.07
2019-03-15T07:54:39.790Z,2.30
2019-03-15T07:57:08.648Z,0.70
2019-03-15T07:59:37.690Z,1.30
2019-03-15T08:02:06.518Z,3.43
2019-03-15T08:04:36.090Z,1.20
2019-03-15T08:07:05.365Z,1.23
2019-03-15T08:09:34.370Z,0.97
2019-03-15T08:12:03.225Z,2.13
2019-03-15T08:14:31.859Z,0.73
2019-03-15T08:17:00.768Z,0.53
2019-03-15T08:19:29.547Z,0.60
2019-03-15T08:22:00.920Z,0.50
2019-03-15T08:24:29.271Z,2.93
2019-03-15T08:26:57.715Z,0.50
2019-03-15T08:29:26.911Z,1.80
2019-03-15T08:31:55.698Z,1.47
2019-03-15T08:34:24.148Z,1.20
2019-03-15T08:36:52.474Z,0.97
2019-03-15T08:39:20.820Z,1.20
2019-03-15T08:41:49.280Z,2.20
2019-03-15T08:44:18.067Z,1.53
2019-03-15T08:46:46.922Z,1.97
2019-03-15T08:49:15.243Z,2.47
2019-03-15T08:51:43.610Z,0.50
2019-03-15T08:54:11.986Z,0.97
2019-03-15T08:56:40.759Z,1.70
2019-03-15T08:59:09.167Z,1.17
2019-03-15T09:01:37.631Z,3.63
2019-03-15T09:04:05.979Z,0.70
2019-03-15T09:06:34.675Z,1.60
2019-03-15T09:09:04.227Z,3.43
2019-03-15T09:11:33.257Z,2.33
2019-03-15T09:14:02.097Z,4.40
2019-03-15T09:16:31.088Z,2.97
2019-03-15T09:18:59.915Z,5.37
2019-03-15T09:21:28.291Z,4.53
2019-03-15T09:23:56.677Z,5.77
2019-03-15T09:26:25.234Z,4.17
2019-03-15T09:28:53.886Z,5.37
2019-03-15T09:31:22.522Z,4.27
2019-03-15T09:33:51.734Z,2.90
2019-03-15T09:36:20.771Z,4.83
2019-03-15T09:38:49.804Z,4.93
2019-03-15T09:41:31.040Z,2.40
2019-03-15T09:43:49.078Z,4.67
2019-03-15T09:46:18.164Z,4.33
2019-03-15T09:48:46.910Z,5.80
2019-03-15T09:51:15.556Z,5.93
2019-03-15T09:53:44.374Z,4.87
2019-03-15T09:56:13.031Z,3.83
2019-03-15T09:58:41.864Z,3.47
2019-03-15T10:01:10.615Z,3.60
2019-03-15T10:03:39.898Z,4.13
2019-03-15T10:06:15.428Z,3.33
2019-03-15T10:08:42.083Z,7.03
2019-03-15T10:11:13.607Z,7.03
2019-03-15T10:13:41.962Z,3.63
2019-03-15T10:16:10.557Z,6.07
2019-03-15T10:18:38.909Z,4.47
2019-03-15T10:21:09.323Z,4.77
2019-03-15T10:23:38.727Z,3.57
2019-03-15T10:26:07.855Z,3.20
2019-03-15T10:28:36.543Z,2.70
2019-03-15T10:31:05.358Z,3.97
2019-03-15T10:33:34.548Z,4.93
2019-03-15T10:36:03.090Z,8.17
2019-03-15T10:38:31.940Z,3.20
2019-03-15T10:41:01.359Z,3.80
2019-03-15T10:43:30.274Z,3.97
2019-03-15T10:45:59.126Z,7.83
2019-03-15T10:48:28.327Z,6.53
2019-03-15T10:50:57.211Z,4.87
2019-03-15T10:53:26.031Z,6.87
2019-03-15T10:55:59.987Z,4.43
2019-03-15T10:58:25.322Z,8.50
2019-03-15T11:00:54.439Z,8.00
2019-03-15T11:03:22.788Z,6.00
2019-03-15T11:05:51.254Z,7.63
2019-03-15T11:08:19.997Z,5.83
2019-03-15T11:10:48.536Z,5.70
2019-03-15T11:13:17.249Z,8.17
2019-03-15T11:15:46.150Z,4.53
2019-03-15T11:18:15.505Z,3.43
2019-03-15T11:20:44.203Z,3.87
2019-03-15T11:23:13.037Z,4.03
2019-03-15T11:25:41.838Z,4.70
2019-03-15T11:28:10.356Z,6.37
2019-03-15T11:30:39.139Z,2.70
2019-03-15T11:33:07.947Z,5.30
2019-03-15T11:35:36.951Z,5.93
2019-03-15T11:38:05.608Z,5.23
2019-03-15T11:40:34.692Z,6.00
2019-03-15T11:43:04.922Z,2.87
2019-03-15T11:45:33.678Z,2.97
2019-03-15T11:48:04.116Z,2.77
2019-03-15T11:50:32.121Z,3.53
2019-03-15T11:53:00.487Z,4.60
2019-03-15T11:55:28.819Z,3.87
2019-03-15T11:57:57.526Z,3.10
2019-03-15T12:00:26.309Z,2.90
2019-03-15T12:02:54.636Z,3.77
2019-03-15T12:05:23.365Z,1.70
2019-03-15T12:07:51.793Z,2.67
2019-03-15T12:10:20.139Z,2.10
2019-03-15T12:12:48.449Z,2.20
2019-03-15T12:15:16.803Z,2.27
2019-03-15T12:17:45.157Z,3.07
2019-03-15T12:20:13.893Z,3.30
2019-03-15T12:22:42.674Z,2.13
2019-03-15T12:25:11.462Z,3.70
2019-03-15T12:27:40.099Z,2.60
2019-03-15T12:30:09.066Z,2.30
2019-03-15T12:32:37.793Z,1.60
2019-03-15T12:35:07.473Z,1.87
2019-03-15T12:37:36.789Z,1.63
2019-03-15T12:40:06.095Z,3.17
2019-03-15T12:42:34.761Z,2.13
2019-03-15T12:45:03.513Z,2.20
2019-03-15T12:47:32.140Z,1.77
2019-03-15T12:50:01.174Z,3.67
2019-03-15T12:52:29.818Z,2.47
2019-03-15T12:54:58.453Z,1.87
2019-03-15T12:57:27.646Z,2.60
2019-03-15T12:59:56.318Z,2.70
2019-03-15T13:02:25.826Z,1.73
2019-03-15T13:04:55.138Z,1.57
2019-03-15T13:07:24.007Z,3.00
2019-03-15T13:09:52.913Z,2.50
2019-03-15T13:12:21.259Z,4.20
2019-03-15T13:14:49.778Z,1.80
2019-03-15T13:17:18.798Z,4.00
2019-03-15T13:19:54.974Z,4.40
2019-03-15T13:22:18.337Z,1.90
2019-03-15T13:24:47.061Z,2.77
2019-03-15T13:27:15.426Z,1.93
2019-03-15T13:29:43.789Z,3.33
2019-03-15T13:32:12.238Z,2.83
2019-03-15T13:34:41.030Z,2.53
2019-03-15T13:37:10.064Z,2.13
2019-03-15T13:39:38.465Z,2.93
2019-03-15T13:42:07.530Z,3.23
2019-03-15T13:44:36.326Z,4.53
2019-03-15T13:47:05.498Z,1.77
2019-03-15T13:49:34.166Z,2.50
2019-03-15T13:52:03.197Z,2.67
2019-03-15T13:54:31.875Z,2.10
2019-03-15T13:57:00.694Z,2.40
2019-03-15T13:59:29.512Z,1.73
2019-03-15T14:01:58.314Z,2.13
2019-03-15T14:04:27.516Z,4.83
2019-03-15T14:06:56.746Z,1.70
2019-03-15T14:09:25.403Z,2.57
2019-03-15T14:11:54.314Z,3.67
2019-03-15T14:14:23.344Z,2.70
2019-03-15T14:16:52.109Z,1.63
2019-03-15T14:19:20.621Z,1.70
2019-03-15T14:21:49.753Z,1.70
2019-03-15T14:24:18.439Z,3.57
2019-03-15T14:26:46.886Z,2.07
2019-03-15T14:29:15.298Z,1.70
2019-03-15T14:31:44.292Z,3.30
2019-03-15T14:34:12.770Z,2.20
2019-03-15T14:36:42.021Z,1.90
2019-03-15T14:39:10.842Z,4.33
2019-03-15T14:41:39.936Z,1.80
2019-03-15T14:44:08.969Z,2.10
2019-03-15T14:46:37.736Z,2.33
2019-03-15T14:49:07.984Z,3.07
2019-03-15T14:51:36.431Z,2.57
2019-03-15T14:54:05.573Z,2.03
2019-03-15T14:56:34.562Z,5.00
2019-03-15T14:59:04.005Z,1.57
2019-03-15T15:01:33.055Z,2.33
2019-03-15T15:04:01.810Z,1.40
2019-03-15T15:06:30.951Z,1.40
2019-03-15T15:09:00.001Z,2.17
2019-03-15T15:11:28.794Z,1.80
2019-03-15T15:13:57.170Z,6.87
2019-03-15T15:16:25.568Z,3.03
2019-03-15T15:18:53.940Z,2.07
2019-03-15T15:21:22.282Z,2.27
2019-03-15T15:23:50.635Z,1.80
2019-03-15T15:26:19.306Z,1.73
2019-03-15T15:28:48.071Z,1.50
2019-03-15T15:31:16.708Z,5.40
2019-03-15T15:33:45.029Z,3.93
2019-03-15T15:36:13.406Z,6.80
2019-03-15T15:38:41.785Z,6.77
2019-03-15T15:41:10.109Z,6.57
2019-03-15T15:43:38.489Z,6.17
2019-03-15T15:46:06.810Z,3.83
2019-03-15T15:48:35.241Z,3.70
2019-03-15T15:51:03.574Z,3.83
2019-03-15T15:53:31.906Z,3.13
2019-03-15T15:56:00.378Z,3.20
2019-03-15T15:58:28.711Z,5.37
2019-03-15T16:00:57.046Z,4.07
2019-03-15T16:03:25.555Z,2.40
2019-03-15T16:05:53.967Z,1.13
2019-03-15T16:08:22.322Z,1.60
2019-03-15T16:10:50.839Z,3.53
2019-03-15T16:13:19.150Z,1.30
2019-03-15T16:15:47.543Z,2.00
2019-03-15T16:18:16.259Z,2.90
2019-03-15T16:20:45.480Z,7.10
2019-03-15T16:23:14.515Z,1.43
2019-03-15T16:25:43.942Z,1.00
2019-03-15T16:28:12.601Z,4.07
2019-03-15T16:30:41.794Z,1.53
2019-03-15T16:33:10.487Z,1.57
2019-03-15T16:35:39.408Z,5.40
2019-03-15T16:38:08.582Z,3.27
2019-03-15T16:40:37.361Z,4.53
2019-03-15T16:43:06.189Z,3.27
2019-03-15T16:45:35.016Z,1.30
2019-03-15T16:48:04.236Z,1.23
2019-03-15T16:50:33.163Z,1.00
2019-03-15T16:53:01.899Z,4.23
2019-03-15T16:55:30.234Z,2.17
2019-03-15T16:57:59.445Z,3.90
2019-03-15T17:00:28.112Z,0.73
2019-03-15T17:02:56.848Z,3.43
2019-03-15T17:05:25.751Z,1.70
2019-03-15T17:07:54.560Z,4.07
2019-03-15T17:10:23.103Z,17.20
2019-03-15T17:12:55.570Z,24.93
2019-03-15T17:15:22.671Z,12.53
2019-03-15T17:17:51.454Z,13.47
2019-03-15T17:20:19.795Z,22.03
2019-03-15T17:22:48.467Z,9.57
2019-03-15T17:25:17.690Z,14.43
2019-03-15T17:27:46.378Z,2.07
2019-03-15T17:30:15.553Z,7.73
2019-03-15T17:32:44.334Z,2.90
2019-03-15T17:35:13.595Z,2.93
2019-03-15T17:37:42.896Z,4.83
2019-03-15T17:40:12.652Z,1.97
2019-03-15T17:42:44.548Z,3.10
2019-03-15T17:45:13.901Z,3.53
2019-03-15T17:47:42.940Z,4.17
2019-03-15T17:50:12.908Z,2.80
2019-03-15T17:52:41.998Z,1.30
2019-03-15T17:55:11.042Z,4.83
2019-03-15T17:57:39.767Z,2.23
2019-03-15T18:00:28.206Z,4.40
2019-03-15T18:02:57.196Z,2.80
2019-03-15T18:05:26.348Z,2.40
2019-03-15T18:07:55.288Z,3.50
2019-03-15T18:10:24.997Z,2.67
2019-03-15T18:12:54.133Z,4.93
2019-03-15T18:15:22.778Z,4.50
2019-03-15T18:17:52.235Z,4.50
2019-03-15T18:20:21.510Z,3.53
2019-03-15T18:22:50.628Z,2.63
2019-03-15T18:25:19.246Z,1.73
2019-03-15T18:27:48.792Z,1.83
2019-03-15T18:30:17.922Z,4.23
2019-03-15T18:32:46.937Z,3.27
2019-03-15T18:35:16.341Z,2.83
2019-03-15T18:37:45.167Z,4.80
2019-03-15T18:40:14.385Z,9.67
2019-03-15T18:42:43.860Z,5.23
2019-03-15T18:45:13.211Z,4.13
2019-03-15T18:47:42.366Z,3.27
2019-03-15T18:50:16.745Z,2.60
2019-03-15T18:52:45.936Z,2.20
2019-03-15T18:55:14.987Z,2.27
2019-03-15T18:57:44.350Z,2.70
2019-03-15T19:00:15.251Z,3.27
2019-03-15T19:02:44.770Z,2.10
2019-03-15T19:05:14.224Z,3.37
2019-03-15T19:07:43.295Z,4.67
2019-03-15T19:10:12.650Z,2.37
2019-03-15T19:12:42.347Z,2.43
2019-03-15T19:15:12.027Z,3.70
2019-03-15T19:17:41.027Z,5.33
2019-03-15T19:20:10.163Z,1.73
2019-03-15T19:22:41.407Z,2.20
2019-03-15T19:25:11.030Z,7.20
2019-03-15T19:27:39.926Z,4.90
2019-03-15T19:30:09.419Z,2.37
2019-03-15T19:32:38.387Z,1.77
2019-03-15T19:35:07.675Z,4.30
2019-03-15T19:37:37.090Z,3.33
2019-03-15T19:40:06.178Z,4.47
2019-03-15T19:42:35.719Z,5.97
2019-03-15T19:45:05.069Z,5.07
2019-03-15T19:47:34.193Z,4.97
2019-03-15T19:50:03.296Z,5.23
2019-03-15T19:52:32.432Z,4.23
2019-03-15T19:55:01.511Z,3.90
2019-03-15T19:57:31.323Z,3.63
2019-03-15T20:00:07.472Z,6.90
2019-03-15T20:02:31.342Z,5.77
2019-03-15T20:05:00.880Z,3.70
2019-03-15T20:07:30.088Z,2.77
2019-03-15T20:09:59.212Z,2.37
2019-03-15T20:12:28.389Z,2.60
2019-03-15T20:14:57.462Z,1.90
2019-03-15T20:17:27.000Z,2.73
2019-03-15T20:19:56.106Z,2.90
2019-03-15T20:22:24.819Z,3.87
2019-03-15T20:24:54.226Z,2.90
2019-03-15T20:27:23.677Z,2.03
2019-03-15T20:29:53.241Z,2.23
2019-03-15T20:32:22.643Z,2.13
2019-03-15T20:34:52.093Z,2.07
2019-03-15T20:37:21.506Z,3.53
2019-03-15T20:39:51.071Z,1.33
2019-03-15T20:42:20.384Z,1.37
2019-03-15T20:44:49.587Z,2.87
2019-03-15T20:47:18.788Z,1.80
2019-03-15T20:49:48.220Z,1.30
2019-03-15T20:52:17.254Z,1.13
2019-03-15T20:54:46.868Z,0.83
2019-03-15T20:57:16.511Z,0.70
2019-03-15T20:59:45.921Z,0.73
2019-03-15T21:02:14.635Z,0.47
2019-03-15T21:04:46.189Z,1.03
2019-03-15T21:07:15.346Z,0.60
2019-03-15T21:09:44.787Z,0.97
2019-03-15T21:12:13.777Z,0.40
2019-03-15T21:14:42.831Z,0.57
2019-03-15T21:17:12.273Z,0.70
2019-03-15T21:19:42.577Z,2.00
2019-03-15T21:22:12.120Z,0.70
2019-03-15T21:24:41.753Z,1.13
2019-03-15T21:27:11.322Z,0.53
2019-03-15T21:29:40.623Z,2.47
2019-03-15T21:32:09.920Z,2.07
2019-03-15T21:34:40.038Z,1.20
2019-03-15T21:37:09.797Z,1.10
2019-03-15T21:39:38.771Z,2.17
2019-03-15T21:42:07.558Z,3.10
2019-03-15T21:44:39.699Z,2.30
2019-03-15T21:47:08.422Z,3.13
2019-03-15T21:49:37.206Z,3.17
2019-03-15T21:52:05.882Z,3.87
2019-03-15T21:54:34.687Z,2.93
2019-03-15T21:57:03.551Z,4.10
2019-03-15T21:59:32.338Z,2.83
2019-03-15T22:02:01.344Z,2.07
2019-03-15T22:04:30.022Z,3.03
2019-03-15T22:06:58.856Z,3.97
2019-03-15T22:09:28.226Z,2.13
2019-03-15T22:11:56.894Z,4.20
2019-03-15T22:14:25.529Z,3.40
2019-03-15T22:16:54.184Z,2.57
2019-03-15T22:19:22.995Z,3.67
2019-03-15T22:21:51.845Z,6.23
2019-03-15T22:24:20.693Z,5.17
2019-03-15T22:26:49.567Z,3.57
2019-03-15T22:29:18.379Z,3.37
2019-03-15T22:31:47.716Z,2.57
2019-03-15T22:34:16.559Z,2.63
2019-03-15T22:36:45.590Z,2.10
2019-03-15T22:39:14.271Z,3.23
2019-03-15T22:41:43.404Z,2.53
2019-03-15T22:44:12.474Z,2.43
2019-03-15T22:46:41.149Z,3.33
2019-03-15T22:49:10.534Z,3.77
2019-03-15T22:51:39.222Z,3.03
2019-03-15T22:54:08.616Z,2.73
2019-03-15T22:56:38.018Z,2.97
2019-03-15T22:59:07.151Z,4.03
2019-03-15T23:01:36.282Z,2.10
2019-03-15T23:04:05.251Z,1.90
2019-03-15T23:06:34.335Z,4.40
2019-03-15T23:09:04.938Z,2.83
2019-03-15T23:11:33.981Z,5.07
2019-03-15T23:14:02.711Z,4.73
2019-03-15T23:16:31.505Z,2.53
2019-03-15T23:19:00.583Z,5.17
2019-03-15T23:21:29.598Z,5.63
2019-03-15T23:23:58.915Z,4.53
2019-03-15T23:26:27.653Z,2.50
2019-03-15T23:28:56.461Z,1.73
2019-03-15T23:31:25.623Z,2.27
2019-03-15T23:33:54.588Z,4.10
2019-03-15T23:36:23.866Z,2.03
2019-03-15T23:38:52.566Z,2.57
2019-03-15T23:41:21.453Z,3.20
2019-03-15T23:43:50.576Z,5.00
2019-03-15T23:46:19.228Z,2.60
2019-03-15T23:48:47.859Z,6.67
2019-03-15T23:51:17.064Z,3.13
2019-03-15T23:53:46.103Z,2.47
2019-03-15T23:56:14.778Z,2.47
2019-03-15T23:58:43.620Z,1.97
